sensor_id;sensor_type;location;lat;lon;timestamp;temperature;humidity
2967;DHT22;1493;51.496;7.210;2023-05-13T00:00:55;12.30;99.90
2967;DHT22;1493;51.496;7.210;2023-05-13T00:03:23;12.20;99.90
2967;DHT22;1493;51.496;7.210;2023-05-13T00:05:50;12.20;99.90
2967;DHT22;1493;51.496;7.210;2023-05-13T00:08:17;12.20;99.90
2967;DHT22;1493;51.496;7.210;2023-05-13T00:10:44;12.20;99.90
2967;DHT22;1493;51.496;7.210;2023-05-13T00:13:11;12.10;99.90
2967;DHT22;1493;51.496;7.210;2023-05-13T00:15:38;12.10;99.90
2967;DHT22;1493;51.496;7.210;2023-05-13T00:18:06;12.10;99.90
2967;DHT22;1493;51.496;7.210;2023-05-13T00:20:34;12.10;99.90
2967;DHT22;1493;51.496;7.210;2023-05-13T00:23:01;12.10;99.90
2967;DHT22;1493;51.496;7.210;2023-05-13T00:25:28;12.10;99.90
2967;DHT22;1493;51.496;7.210;2023-05-13T00:27:55;12.00;99.90
2967;DHT22;1493;51.496;7.210;2023-05-13T00:30:22;12.00;99.90
2967;DHT22;1493;51.496;7.210;2023-05-13T00:32:49;12.00;99.90
2967;DHT22;1493;51.496;7.210;2023-05-13T00:35:16;12.00;99.90
2967;DHT22;1493;51.496;7.210;2023-05-13T00:37:44;11.90;99.90
2967;DHT22;1493;51.496;7.210;2023-05-13T00:40:18;11.90;99.90
2967;DHT22;1493;51.496;7.210;2023-05-13T00:42:45;11.90;99.90
2967;DHT22;1493;51.496;7.210;2023-05-13T00:45:12;11.90;99.90
2967;DHT22;1493;51.496;7.210;2023-05-13T00:47:40;11.90;99.90
2967;DHT22;1493;51.496;7.210;2023-05-13T00:50:09;11.80;99.90
2967;DHT22;1493;51.496;7.210;2023-05-13T00:52:36;11.80;99.90
2967;DHT22;1493;51.496;7.210;2023-05-13T00:55:06;11.70;99.90
2967;DHT22;1493;51.496;7.210;2023-05-13T00:57:34;11.80;99.90
2967;DHT22;1493;51.496;7.210;2023-05-13T01:00:01;11.70;99.90
2967;DHT22;1493;51.496;7.210;2023-05-13T01:02:34;11.70;99.90
2967;DHT22;1493;51.496;7.210;2023-05-13T01:05:08;11.70;99.90
2967;DHT22;1493;51.496;7.210;2023-05-13T01:07:43;11.60;99.90
2967;DHT22;1493;51.496;7.210;2023-05-13T01:10:17;11.60;99.90
2967;DHT22;1493;51.496;7.210;2023-05-13T01:12:45;11.60;99.90
2967;DHT22;1493;51.496;7.210;2023-05-13T01:15:16;11.60;99.90
2967;DHT22;1493;51.496;7.210;2023-05-13T01:17:52;11.50;99.90
2967;DHT22;1493;51.496;7.210;2023-05-13T01:20:21;11.50;99.90
2967;DHT22;1493;51.496;7.210;2023-05-13T01:22:49;11.50;99.90
2967;DHT22;1493;51.496;7.210;2023-05-13T01:25:16;11.50;99.90
2967;DHT22;1493;51.496;7.210;2023-05-13T01:27:43;11.50;99.90
2967;DHT22;1493;51.496;7.210;2023-05-13T01:30:11;11.40;99.90
2967;DHT22;1493;51.496;7.210;2023-05-13T01:32:38;11.40;99.90
2967;DHT22;1493;51.496;7.210;2023-05-13T01:35:07;11.40;99.90
2967;DHT22;1493;51.496;7.210;2023-05-13T01:37:35;11.40;99.90
2967;DHT22;1493;51.496;7.210;2023-05-13T01:40:05;11.40;99.90
2967;DHT22;1493;51.496;7.210;2023-05-13T01:42:32;11.30;99.90
2967;DHT22;1493;51.496;7.210;2023-05-13T01:45:00;11.30;99.90
2967;DHT22;1493;51.496;7.210;2023-05-13T01:47:26;11.30;99.90
2967;DHT22;1493;51.496;7.210;2023-05-13T01:49:53;11.30;99.90
2967;DHT22;1493;51.496;7.210;2023-05-13T01:52:20;11.20;99.90
2967;DHT22;1493;51.496;7.210;2023-05-13T01:54:47;11.20;99.90
2967;DHT22;1493;51.496;7.210;2023-05-13T01:57:15;11.20;99.90
2967;DHT22;1493;51.496;7.210;2023-05-13T01:59:42;11.20;99.90
2967;DHT22;1493;51.496;7.210;2023-05-13T02:02:09;11.20;99.90
2967;DHT22;1493;51.496;7.210;2023-05-13T02:04:36;11.10;99.90
2967;DHT22;1493;51.496;7.210;2023-05-13T02:07:03;11.10;99.90
2967;DHT22;1493;51.496;7.210;2023-05-13T02:09:30;11.10;99.90
2967;DHT22;1493;51.496;7.210;2023-05-13T02:11:57;11.10;99.90
2967;DHT22;1493;51.496;7.210;2023-05-13T02:14:25;11.10;99.90
2967;DHT22;1493;51.496;7.210;2023-05-13T02:16:52;11.10;99.90
2967;DHT22;1493;51.496;7.210;2023-05-13T02:19:18;11.10;99.90
2967;DHT22;1493;51.496;7.210;2023-05-13T02:21:45;11.10;99.90
2967;DHT22;1493;51.496;7.210;2023-05-13T02:24:12;11.10;99.90
2967;DHT22;1493;51.496;7.210;2023-05-13T02:26:39;11.10;99.90
2967;DHT22;1493;51.496;7.210;2023-05-13T02:29:06;11.10;99.90
2967;DHT22;1493;51.496;7.210;2023-05-13T02:31:34;11.10;99.90
2967;DHT22;1493;51.496;7.210;2023-05-13T02:34:01;11.10;99.90
2967;DHT22;1493;51.496;7.210;2023-05-13T02:36:28;11.10;99.90
2967;DHT22;1493;51.496;7.210;2023-05-13T02:38:55;11.00;99.90
2967;DHT22;1493;51.496;7.210;2023-05-13T02:41:23;11.00;99.90
2967;DHT22;1493;51.496;7.210;2023-05-13T02:43:50;11.00;99.90
2967;DHT22;1493;51.496;7.210;2023-05-13T02:46:17;10.90;99.90
2967;DHT22;1493;51.496;7.210;2023-05-13T02:48:45;10.90;99.90
2967;DHT22;1493;51.496;7.210;2023-05-13T02:51:12;10.90;99.90
2967;DHT22;1493;51.496;7.210;2023-05-13T02:53:38;10.80;99.90
2967;DHT22;1493;51.496;7.210;2023-05-13T02:56:05;10.80;99.90
2967;DHT22;1493;51.496;7.210;2023-05-13T02:58:33;10.80;99.90
2967;DHT22;1493;51.496;7.210;2023-05-13T03:01:01;10.70;99.90
2967;DHT22;1493;51.496;7.210;2023-05-13T03:03:27;10.70;99.90
2967;DHT22;1493;51.496;7.210;2023-05-13T03:05:56;10.60;99.90
2967;DHT22;1493;51.496;7.210;2023-05-13T03:08:23;10.60;99.90
2967;DHT22;1493;51.496;7.210;2023-05-13T03:10:50;10.60;99.90
2967;DHT22;1493;51.496;7.210;2023-05-13T03:13:17;10.60;99.90
2967;DHT22;1493;51.496;7.210;2023-05-13T03:15:43;10.60;99.90
2967;DHT22;1493;51.496;7.210;2023-05-13T03:18:10;10.50;99.90
2967;DHT22;1493;51.496;7.210;2023-05-13T03:20:37;10.50;99.90
2967;DHT22;1493;51.496;7.210;2023-05-13T03:23:05;10.50;99.90
2967;DHT22;1493;51.496;7.210;2023-05-13T03:25:32;10.50;99.90
2967;DHT22;1493;51.496;7.210;2023-05-13T03:27:59;10.50;99.90
2967;DHT22;1493;51.496;7.210;2023-05-13T03:30:26;10.50;99.90
2967;DHT22;1493;51.496;7.210;2023-05-13T03:32:53;10.50;99.90
2967;DHT22;1493;51.496;7.210;2023-05-13T03:35:21;10.40;99.90
2967;DHT22;1493;51.496;7.210;2023-05-13T03:37:47;10.40;99.90
2967;DHT22;1493;51.496;7.210;2023-05-13T03:40:16;10.40;99.90
2967;DHT22;1493;51.496;7.210;2023-05-13T03:42:43;10.40;99.90
2967;DHT22;1493;51.496;7.210;2023-05-13T03:45:09;10.30;99.90
2967;DHT22;1493;51.496;7.210;2023-05-13T03:47:37;10.30;99.90
2967;DHT22;1493;51.496;7.210;2023-05-13T03:50:05;10.40;99.90
2967;DHT22;1493;51.496;7.210;2023-05-13T03:52:32;10.30;99.90
2967;DHT22;1493;51.496;7.210;2023-05-13T03:54:59;10.30;99.90
2967;DHT22;1493;51.496;7.210;2023-05-13T03:57:27;10.30;99.90
2967;DHT22;1493;51.496;7.210;2023-05-13T03:59:54;10.30;99.90
2967;DHT22;1493;51.496;7.210;2023-05-13T04:02:20;10.20;99.90
2967;DHT22;1493;51.496;7.210;2023-05-13T04:04:48;10.20;99.90
2967;DHT22;1493;51.496;7.210;2023-05-13T04:07:15;10.20;99.90
2967;DHT22;1493;51.496;7.210;2023-05-13T04:09:42;10.20;99.90
2967;DHT22;1493;51.496;7.210;2023-05-13T04:12:08;10.20;99.90
2967;DHT22;1493;51.496;7.210;2023-05-13T04:14:37;10.20;99.90
2967;DHT22;1493;51.496;7.210;2023-05-13T04:17:04;10.20;99.90
2967;DHT22;1493;51.496;7.210;2023-05-13T04:19:31;10.20;99.90
2967;DHT22;1493;51.496;7.210;2023-05-13T04:21:58;10.20;99.90
2967;DHT22;1493;51.496;7.210;2023-05-13T04:24:25;10.30;99.90
2967;DHT22;1493;51.496;7.210;2023-05-13T04:26:51;10.30;99.90
2967;DHT22;1493;51.496;7.210;2023-05-13T04:29:18;10.30;99.90
2967;DHT22;1493;51.496;7.210;2023-05-13T04:31:46;10.30;99.90
2967;DHT22;1493;51.496;7.210;2023-05-13T04:34:13;10.40;99.90
2967;DHT22;1493;51.496;7.210;2023-05-13T04:36:40;10.40;99.90
2967;DHT22;1493;51.496;7.210;2023-05-13T04:39:07;10.40;99.90
2967;DHT22;1493;51.496;7.210;2023-05-13T04:41:34;10.50;99.90
2967;DHT22;1493;51.496;7.210;2023-05-13T04:44:01;10.60;99.90
2967;DHT22;1493;51.496;7.210;2023-05-13T04:46:30;10.60;99.90
2967;DHT22;1493;51.496;7.210;2023-05-13T04:48:58;10.60;99.90
2967;DHT22;1493;51.496;7.210;2023-05-13T04:51:25;10.70;99.90
2967;DHT22;1493;51.496;7.210;2023-05-13T04:53:52;10.80;99.90
2967;DHT22;1493;51.496;7.210;2023-05-13T04:56:19;10.80;99.90
2967;DHT22;1493;51.496;7.210;2023-05-13T04:58:46;10.90;99.90
2967;DHT22;1493;51.496;7.210;2023-05-13T05:01:13;11.00;99.90
2967;DHT22;1493;51.496;7.210;2023-05-13T05:03:40;11.00;99.90
2967;DHT22;1493;51.496;7.210;2023-05-13T05:06:08;11.10;99.90
2967;DHT22;1493;51.496;7.210;2023-05-13T05:08:34;11.20;99.90
2967;DHT22;1493;51.496;7.210;2023-05-13T05:11:01;11.20;99.90
2967;DHT22;1493;51.496;7.210;2023-05-13T05:13:28;11.30;99.90
2967;DHT22;1493;51.496;7.210;2023-05-13T05:15:55;11.30;99.90
2967;DHT22;1493;51.496;7.210;2023-05-13T05:18:22;11.40;99.90
2967;DHT22;1493;51.496;7.210;2023-05-13T05:20:48;11.40;99.90
2967;DHT22;1493;51.496;7.210;2023-05-13T05:23:17;11.50;99.90
2967;DHT22;1493;51.496;7.210;2023-05-13T05:25:43;11.60;99.90
2967;DHT22;1493;51.496;7.210;2023-05-13T05:28:10;11.70;99.90
2967;DHT22;1493;51.496;7.210;2023-05-13T05:30:37;11.70;99.90
2967;DHT22;1493;51.496;7.210;2023-05-13T05:33:05;11.80;99.90
2967;DHT22;1493;51.496;7.210;2023-05-13T05:35:31;11.90;99.90
2967;DHT22;1493;51.496;7.210;2023-05-13T05:38:01;12.00;99.90
2967;DHT22;1493;51.496;7.210;2023-05-13T05:40:29;12.10;99.90
2967;DHT22;1493;51.496;7.210;2023-05-13T05:42:56;12.20;99.90
2967;DHT22;1493;51.496;7.210;2023-05-13T05:45:23;12.20;99.90
2967;DHT22;1493;51.496;7.210;2023-05-13T05:47:50;12.20;99.90
2967;DHT22;1493;51.496;7.210;2023-05-13T05:50:18;12.30;99.90
2967;DHT22;1493;51.496;7.210;2023-05-13T05:52:45;12.30;99.90
2967;DHT22;1493;51.496;7.210;2023-05-13T05:55:12;12.30;99.90
2967;DHT22;1493;51.496;7.210;2023-05-13T05:57:40;12.40;99.90
2967;DHT22;1493;51.496;7.210;2023-05-13T06:00:07;12.50;99.90
2967;DHT22;1493;51.496;7.210;2023-05-13T06:02:35;12.60;99.90
2967;DHT22;1493;51.496;7.210;2023-05-13T06:05:01;12.70;99.90
2967;DHT22;1493;51.496;7.210;2023-05-13T06:07:28;12.80;99.90
2967;DHT22;1493;51.496;7.210;2023-05-13T06:09:55;12.90;99.90
2967;DHT22;1493;51.496;7.210;2023-05-13T06:12:22;12.90;99.90
2967;DHT22;1493;51.496;7.210;2023-05-13T06:14:50;13.00;99.90
2967;DHT22;1493;51.496;7.210;2023-05-13T06:17:17;13.10;99.90
2967;DHT22;1493;51.496;7.210;2023-05-13T06:19:44;13.20;99.90
2967;DHT22;1493;51.496;7.210;2023-05-13T06:22:11;13.20;99.90
2967;DHT22;1493;51.496;7.210;2023-05-13T06:24:38;13.30;99.90
2967;DHT22;1493;51.496;7.210;2023-05-13T06:27:07;13.30;99.90
2967;DHT22;1493;51.496;7.210;2023-05-13T06:29:34;13.30;99.90
2967;DHT22;1493;51.496;7.210;2023-05-13T06:32:02;13.40;99.90
2967;DHT22;1493;51.496;7.210;2023-05-13T06:34:29;13.40;99.90
2967;DHT22;1493;51.496;7.210;2023-05-13T06:36:55;13.40;99.90
2967;DHT22;1493;51.496;7.210;2023-05-13T06:39:22;13.40;99.90
2967;DHT22;1493;51.496;7.210;2023-05-13T06:41:49;13.40;99.90
2967;DHT22;1493;51.496;7.210;2023-05-13T06:44:16;13.50;99.90
2967;DHT22;1493;51.496;7.210;2023-05-13T06:46:43;13.50;99.90
2967;DHT22;1493;51.496;7.210;2023-05-13T06:49:11;13.60;99.90
2967;DHT22;1493;51.496;7.210;2023-05-13T06:51:38;13.70;99.90
2967;DHT22;1493;51.496;7.210;2023-05-13T06:54:05;13.80;99.90
2967;DHT22;1493;51.496;7.210;2023-05-13T06:56:32;14.10;99.90
2967;DHT22;1493;51.496;7.210;2023-05-13T06:58:59;14.40;99.90
2967;DHT22;1493;51.496;7.210;2023-05-13T07:01:26;14.70;99.90
2967;DHT22;1493;51.496;7.210;2023-05-13T07:03:53;15.10;99.90
2967;DHT22;1493;51.496;7.210;2023-05-13T07:06:21;15.40;99.90
2967;DHT22;1493;51.496;7.210;2023-05-13T07:08:48;15.40;1.00
2967;DHT22;1493;51.496;7.210;2023-05-13T07:11:15;15.90;6.90
2967;DHT22;1493;51.496;7.210;2023-05-13T07:13:42;16.40;1.00
2967;DHT22;1493;51.496;7.210;2023-05-13T07:16:08;16.90;1.00
2967;DHT22;1493;51.496;7.210;2023-05-13T07:18:35;17.30;1.00
2967;DHT22;1493;51.496;7.210;2023-05-13T07:21:02;17.30;99.90
2967;DHT22;1493;51.496;7.210;2023-05-13T07:23:32;17.50;99.90
2967;DHT22;1493;51.496;7.210;2023-05-13T07:26:00;17.50;1.00
2967;DHT22;1493;51.496;7.210;2023-05-13T07:28:27;17.60;99.90
2967;DHT22;1493;51.496;7.210;2023-05-13T07:30:53;17.60;99.90
2967;DHT22;1493;51.496;7.210;2023-05-13T07:33:21;17.50;99.90
2967;DHT22;1493;51.496;7.210;2023-05-13T07:35:47;17.40;1.00
2967;DHT22;1493;51.496;7.210;2023-05-13T07:38:14;17.40;1.00
2967;DHT22;1493;51.496;7.210;2023-05-13T07:40:42;17.40;1.00
2967;DHT22;1493;51.496;7.210;2023-05-13T07:43:09;17.50;99.90
2967;DHT22;1493;51.496;7.210;2023-05-13T07:45:38;17.50;1.00
2967;DHT22;1493;51.496;7.210;2023-05-13T07:48:05;17.40;99.90
2967;DHT22;1493;51.496;7.210;2023-05-13T07:50:31;17.30;1.00
2967;DHT22;1493;51.496;7.210;2023-05-13T07:52:58;17.50;1.00
2967;DHT22;1493;51.496;7.210;2023-05-13T07:55:25;17.60;36.00
2967;DHT22;1493;51.496;7.210;2023-05-13T07:57:53;17.90;99.90
2967;DHT22;1493;51.496;7.210;2023-05-13T08:00:20;18.10;99.90
2967;DHT22;1493;51.496;7.210;2023-05-13T08:02:47;18.10;99.90
2967;DHT22;1493;51.496;7.210;2023-05-13T08:05:14;18.30;1.00
2967;DHT22;1493;51.496;7.210;2023-05-13T08:07:40;18.70;99.90
2967;DHT22;1493;51.496;7.210;2023-05-13T08:10:07;19.00;1.00
2967;DHT22;1493;51.496;7.210;2023-05-13T08:12:34;19.40;99.90
2967;DHT22;1493;51.496;7.210;2023-05-13T08:15:03;19.80;99.90
2967;DHT22;1493;51.496;7.210;2023-05-13T08:17:30;20.20;99.90
2967;DHT22;1493;51.496;7.210;2023-05-13T08:19:57;21.20;32.70
2967;DHT22;1493;51.496;7.210;2023-05-13T08:22:25;22.30;1.00
2967;DHT22;1493;51.496;7.210;2023-05-13T08:24:51;23.30;1.00
2967;DHT22;1493;51.496;7.210;2023-05-13T08:27:18;23.90;1.00
2967;DHT22;1493;51.496;7.210;2023-05-13T08:29:45;24.80;1.00
2967;DHT22;1493;51.496;7.210;2023-05-13T08:32:13;25.20;1.00
2967;DHT22;1493;51.496;7.210;2023-05-13T08:34:40;26.20;1.00
2967;DHT22;1493;51.496;7.210;2023-05-13T08:37:07;27.40;1.00
2967;DHT22;1493;51.496;7.210;2023-05-13T08:39:34;28.80;1.00
2967;DHT22;1493;51.496;7.210;2023-05-13T08:42:02;29.80;1.00
2967;DHT22;1493;51.496;7.210;2023-05-13T08:44:31;30.00;1.00
2967;DHT22;1493;51.496;7.210;2023-05-13T08:47:03;30.80;1.00
2967;DHT22;1493;51.496;7.210;2023-05-13T08:49:35;31.50;1.00
2967;DHT22;1493;51.496;7.210;2023-05-13T08:52:03;32.00;1.00
2967;DHT22;1493;51.496;7.210;2023-05-13T08:54:30;32.50;1.00
2967;DHT22;1493;51.496;7.210;2023-05-13T08:56:57;32.70;1.00
2967;DHT22;1493;51.496;7.210;2023-05-13T08:59:24;32.70;1.00
2967;DHT22;1493;51.496;7.210;2023-05-13T09:01:51;33.40;1.00
2967;DHT22;1493;51.496;7.210;2023-05-13T09:04:19;33.70;1.00
2967;DHT22;1493;51.496;7.210;2023-05-13T09:06:48;34.30;1.00
2967;DHT22;1493;51.496;7.210;2023-05-13T09:09:15;34.80;1.00
2967;DHT22;1493;51.496;7.210;2023-05-13T09:11:42;35.40;1.00
2967;DHT22;1493;51.496;7.210;2023-05-13T09:14:08;35.90;1.00
2967;DHT22;1493;51.496;7.210;2023-05-13T09:16:36;35.90;1.00
2967;DHT22;1493;51.496;7.210;2023-05-13T09:19:04;36.40;1.00
2967;DHT22;1493;51.496;7.210;2023-05-13T09:21:32;36.80;1.00
2967;DHT22;1493;51.496;7.210;2023-05-13T09:24:09;37.10;1.00
2967;DHT22;1493;51.496;7.210;2023-05-13T09:26:37;37.00;1.00
2967;DHT22;1493;51.496;7.210;2023-05-13T09:29:14;37.60;1.00
2967;DHT22;1493;51.496;7.210;2023-05-13T09:31:42;38.00;1.00
2967;DHT22;1493;51.496;7.210;2023-05-13T09:34:09;38.10;1.00
2967;DHT22;1493;51.496;7.210;2023-05-13T09:36:36;38.30;1.00
2967;DHT22;1493;51.496;7.210;2023-05-13T09:39:03;38.40;1.00
2967;DHT22;1493;51.496;7.210;2023-05-13T09:41:33;38.40;1.00
2967;DHT22;1493;51.496;7.210;2023-05-13T09:44:02;38.80;1.00
2967;DHT22;1493;51.496;7.210;2023-05-13T09:46:30;38.50;1.00
2967;DHT22;1493;51.496;7.210;2023-05-13T09:48:58;39.10;1.00
2967;DHT22;1493;51.496;7.210;2023-05-13T09:51:26;39.20;1.00
2967;DHT22;1493;51.496;7.210;2023-05-13T09:53:55;39.70;1.00
2967;DHT22;1493;51.496;7.210;2023-05-13T09:56:28;39.70;1.00
2967;DHT22;1493;51.496;7.210;2023-05-13T09:58:57;39.90;1.00
2967;DHT22;1493;51.496;7.210;2023-05-13T10:01:26;40.00;99.90
2967;DHT22;1493;51.496;7.210;2023-05-13T10:03:53;40.10;99.90
2967;DHT22;1493;51.496;7.210;2023-05-13T10:06:22;40.40;99.90
2967;DHT22;1493;51.496;7.210;2023-05-13T10:08:50;40.10;99.90
2967;DHT22;1493;51.496;7.210;2023-05-13T10:11:18;39.50;99.90
2967;DHT22;1493;51.496;7.210;2023-05-13T10:13:49;40.00;99.90
2967;DHT22;1493;51.496;7.210;2023-05-13T10:16:17;40.60;99.90
2967;DHT22;1493;51.496;7.210;2023-05-13T10:18:44;40.90;99.90
2967;DHT22;1493;51.496;7.210;2023-05-13T10:21:13;40.50;99.90
2967;DHT22;1493;51.496;7.210;2023-05-13T10:23:40;41.10;99.90
2967;DHT22;1493;51.496;7.210;2023-05-13T10:26:07;41.30;99.90
2967;DHT22;1493;51.496;7.210;2023-05-13T10:28:35;40.90;99.90
2967;DHT22;1493;51.496;7.210;2023-05-13T10:31:02;40.50;99.90
2967;DHT22;1493;51.496;7.210;2023-05-13T10:33:31;39.90;99.90
2967;DHT22;1493;51.496;7.210;2023-05-13T10:36:07;40.50;99.90
2967;DHT22;1493;51.496;7.210;2023-05-13T10:38:49;40.90;99.90
2967;DHT22;1493;51.496;7.210;2023-05-13T10:41:34;40.90;99.90
2967;DHT22;1493;51.496;7.210;2023-05-13T10:44:05;40.60;99.90
2967;DHT22;1493;51.496;7.210;2023-05-13T10:46:33;40.90;99.90
2967;DHT22;1493;51.496;7.210;2023-05-13T10:49:05;41.00;99.90
2967;DHT22;1493;51.496;7.210;2023-05-13T10:51:43;40.70;99.90
2967;DHT22;1493;51.496;7.210;2023-05-13T10:54:17;41.00;99.90
2967;DHT22;1493;51.496;7.210;2023-05-13T10:56:45;40.70;99.90
2967;DHT22;1493;51.496;7.210;2023-05-13T10:59:13;41.40;99.90
2967;DHT22;1493;51.496;7.210;2023-05-13T11:01:42;41.40;99.90
2967;DHT22;1493;51.496;7.210;2023-05-13T11:04:14;42.10;99.90
2967;DHT22;1493;51.496;7.210;2023-05-13T11:06:42;42.10;99.90
2967;DHT22;1493;51.496;7.210;2023-05-13T11:09:12;42.10;99.90
2967;DHT22;1493;51.496;7.210;2023-05-13T11:11:39;42.50;99.90
2967;DHT22;1493;51.496;7.210;2023-05-13T11:14:13;42.10;99.90
2967;DHT22;1493;51.496;7.210;2023-05-13T11:16:44;42.20;99.90
2967;DHT22;1493;51.496;7.210;2023-05-13T11:19:20;42.60;99.90
2967;DHT22;1493;51.496;7.210;2023-05-13T11:21:49;42.60;99.90
2967;DHT22;1493;51.496;7.210;2023-05-13T11:24:18;43.10;99.90
2967;DHT22;1493;51.496;7.210;2023-05-13T11:26:48;42.60;99.90
2967;DHT22;1493;51.496;7.210;2023-05-13T11:29:27;42.70;99.90
2967;DHT22;1493;51.496;7.210;2023-05-13T11:31:54;42.90;99.90
2967;DHT22;1493;51.496;7.210;2023-05-13T11:34:24;42.90;99.90
2967;DHT22;1493;51.496;7.210;2023-05-13T11:36:56;43.60;99.90
2967;DHT22;1493;51.496;7.210;2023-05-13T11:39:23;43.60;99.90
2967;DHT22;1493;51.496;7.210;2023-05-13T11:41:52;42.70;99.90
2967;DHT22;1493;51.496;7.210;2023-05-13T11:44:23;42.90;99.90
2967;DHT22;1493;51.496;7.210;2023-05-13T11:46:52;42.30;99.90
2967;DHT22;1493;51.496;7.210;2023-05-13T11:49:36;42.30;99.90
2967;DHT22;1493;51.496;7.210;2023-05-13T11:52:04;43.20;99.90
2967;DHT22;1493;51.496;7.210;2023-05-13T11:54:38;43.00;99.90
2967;DHT22;1493;51.496;7.210;2023-05-13T11:57:13;43.50;99.90
2967;DHT22;1493;51.496;7.210;2023-05-13T11:59:40;43.60;99.90
2967;DHT22;1493;51.496;7.210;2023-05-13T12:02:07;43.00;99.90
2967;DHT22;1493;51.496;7.210;2023-05-13T12:04:35;42.80;99.90
2967;DHT22;1493;51.496;7.210;2023-05-13T12:07:02;43.30;99.90
2967;DHT22;1493;51.496;7.210;2023-05-13T12:09:29;42.10;99.90
2967;DHT22;1493;51.496;7.210;2023-05-13T12:11:56;39.40;99.90
2967;DHT22;1493;51.496;7.210;2023-05-13T12:14:23;39.80;99.90
2967;DHT22;1493;51.496;7.210;2023-05-13T12:16:52;40.30;99.90
2967;DHT22;1493;51.496;7.210;2023-05-13T12:19:19;40.90;99.90
2967;DHT22;1493;51.496;7.210;2023-05-13T12:21:49;40.40;99.90
2967;DHT22;1493;51.496;7.210;2023-05-13T12:24:17;40.20;99.90
2967;DHT22;1493;51.496;7.210;2023-05-13T12:26:44;41.80;99.90
2967;DHT22;1493;51.496;7.210;2023-05-13T12:29:11;43.50;99.90
2967;DHT22;1493;51.496;7.210;2023-05-13T12:31:39;44.10;99.90
2967;DHT22;1493;51.496;7.210;2023-05-13T12:34:06;44.00;99.90
2967;DHT22;1493;51.496;7.210;2023-05-13T12:36:36;41.40;99.90
2967;DHT22;1493;51.496;7.210;2023-05-13T12:39:05;39.10;99.90
2967;DHT22;1493;51.496;7.210;2023-05-13T12:41:35;39.00;99.90
2967;DHT22;1493;51.496;7.210;2023-05-13T12:44:06;41.00;99.90
2967;DHT22;1493;51.496;7.210;2023-05-13T12:46:36;42.80;99.90
2967;DHT22;1493;51.496;7.210;2023-05-13T12:49:04;43.00;99.90
2967;DHT22;1493;51.496;7.210;2023-05-13T12:51:32;41.80;99.90
2967;DHT22;1493;51.496;7.210;2023-05-13T12:53:59;39.50;99.90
2967;DHT22;1493;51.496;7.210;2023-05-13T12:56:27;38.60;99.90
2967;DHT22;1493;51.496;7.210;2023-05-13T13:01:22;38.90;99.90
2967;DHT22;1493;51.496;7.210;2023-05-13T13:03:49;39.00;99.90
2967;DHT22;1493;51.496;7.210;2023-05-13T13:06:16;38.30;99.90
2967;DHT22;1493;51.496;7.210;2023-05-13T13:08:43;37.80;99.90
2967;DHT22;1493;51.496;7.210;2023-05-13T13:11:10;37.40;99.90
2967;DHT22;1493;51.496;7.210;2023-05-13T13:13:44;36.60;99.90
2967;DHT22;1493;51.496;7.210;2023-05-13T13:16:11;35.10;99.90
2967;DHT22;1493;51.496;7.210;2023-05-13T13:18:38;34.20;99.90
2967;DHT22;1493;51.496;7.210;2023-05-13T13:21:05;32.90;99.90
2967;DHT22;1493;51.496;7.210;2023-05-13T13:23:32;34.20;99.90
2967;DHT22;1493;51.496;7.210;2023-05-13T13:25:59;36.10;99.90
2967;DHT22;1493;51.496;7.210;2023-05-13T13:28:26;36.80;99.90
2967;DHT22;1493;51.496;7.210;2023-05-13T13:30:54;36.10;99.90
2967;DHT22;1493;51.496;7.210;2023-05-13T13:33:21;34.90;99.90
2967;DHT22;1493;51.496;7.210;2023-05-13T13:35:48;33.40;99.90
2967;DHT22;1493;51.496;7.210;2023-05-13T13:38:15;32.30;99.90
2967;DHT22;1493;51.496;7.210;2023-05-13T13:40:42;31.30;99.90
2967;DHT22;1493;51.496;7.210;2023-05-13T13:43:09;30.40;99.90
2967;DHT22;1493;51.496;7.210;2023-05-13T13:45:35;29.40;99.90
2967;DHT22;1493;51.496;7.210;2023-05-13T13:48:04;28.80;99.90
2967;DHT22;1493;51.496;7.210;2023-05-13T13:50:31;28.50;99.90
2967;DHT22;1493;51.496;7.210;2023-05-13T13:52:58;29.70;99.90
2967;DHT22;1493;51.496;7.210;2023-05-13T13:55:25;32.70;99.90
2967;DHT22;1493;51.496;7.210;2023-05-13T13:57:52;35.40;99.90
2967;DHT22;1493;51.496;7.210;2023-05-13T14:00:19;37.00;99.90
2967;DHT22;1493;51.496;7.210;2023-05-13T14:02:46;36.30;99.90
2967;DHT22;1493;51.496;7.210;2023-05-13T14:05:15;36.00;99.90
2967;DHT22;1493;51.496;7.210;2023-05-13T14:07:46;36.50;99.90
2967;DHT22;1493;51.496;7.210;2023-05-13T14:10:14;35.60;99.90
2967;DHT22;1493;51.496;7.210;2023-05-13T14:12:40;34.40;99.90
2967;DHT22;1493;51.496;7.210;2023-05-13T14:15:16;32.80;99.90
2967;DHT22;1493;51.496;7.210;2023-05-13T14:17:43;31.20;99.90
2967;DHT22;1493;51.496;7.210;2023-05-13T14:20:10;30.40;99.90
2967;DHT22;1493;51.496;7.210;2023-05-13T14:22:39;29.70;99.90
2967;DHT22;1493;51.496;7.210;2023-05-13T14:25:07;28.80;99.90
2967;DHT22;1493;51.496;7.210;2023-05-13T14:27:35;28.20;99.90
2967;DHT22;1493;51.496;7.210;2023-05-13T14:30:03;27.40;99.90
2967;DHT22;1493;51.496;7.210;2023-05-13T14:32:30;26.90;99.90
2967;DHT22;1493;51.496;7.210;2023-05-13T14:34:57;27.20;99.90
2967;DHT22;1493;51.496;7.210;2023-05-13T14:37:24;27.40;99.90
2967;DHT22;1493;51.496;7.210;2023-05-13T14:40:00;27.00;99.90
2967;DHT22;1493;51.496;7.210;2023-05-13T14:42:27;27.70;99.90
2967;DHT22;1493;51.496;7.210;2023-05-13T14:44:53;26.90;99.90
2967;DHT22;1493;51.496;7.210;2023-05-13T14:47:20;24.60;99.90
2967;DHT22;1493;51.496;7.210;2023-05-13T14:49:47;22.50;99.90
2967;DHT22;1493;51.496;7.210;2023-05-13T14:52:14;21.20;99.90
2967;DHT22;1493;51.496;7.210;2023-05-13T14:54:41;20.10;99.90
2967;DHT22;1493;51.496;7.210;2023-05-13T14:57:09;19.30;99.90
2967;DHT22;1493;51.496;7.210;2023-05-13T14:59:45;18.90;1.00
2967;DHT22;1493;51.496;7.210;2023-05-13T15:02:15;18.60;1.00
2967;DHT22;1493;51.496;7.210;2023-05-13T15:04:41;18.70;99.90
2967;DHT22;1493;51.496;7.210;2023-05-13T15:07:08;18.80;1.00
2967;DHT22;1493;51.496;7.210;2023-05-13T15:09:35;18.90;1.00
2967;DHT22;1493;51.496;7.210;2023-05-13T15:12:02;19.10;1.00
2967;DHT22;1493;51.496;7.210;2023-05-13T15:14:30;19.30;99.90
2967;DHT22;1493;51.496;7.210;2023-05-13T15:16:57;19.60;1.00
2967;DHT22;1493;51.496;7.210;2023-05-13T15:19:24;20.10;99.90
2967;DHT22;1493;51.496;7.210;2023-05-13T15:21:51;21.70;99.90
2967;DHT22;1493;51.496;7.210;2023-05-13T15:24:21;24.60;1.00
2967;DHT22;1493;51.496;7.210;2023-05-13T15:26:47;26.90;99.90
2967;DHT22;1493;51.496;7.210;2023-05-13T15:29:14;28.80;99.90
2967;DHT22;1493;51.496;7.210;2023-05-13T15:31:43;30.20;99.90
2967;DHT22;1493;51.496;7.210;2023-05-13T15:34:10;31.80;99.90
2967;DHT22;1493;51.496;7.210;2023-05-13T15:36:36;32.90;99.90
2967;DHT22;1493;51.496;7.210;2023-05-13T15:39:03;33.40;99.90
2967;DHT22;1493;51.496;7.210;2023-05-13T15:41:30;33.90;99.90
2967;DHT22;1493;51.496;7.210;2023-05-13T15:43:57;34.80;99.90
2967;DHT22;1493;51.496;7.210;2023-05-13T15:46:24;34.20;99.90
2967;DHT22;1493;51.496;7.210;2023-05-13T15:48:52;34.40;99.90
2967;DHT22;1493;51.496;7.210;2023-05-13T15:51:19;34.60;99.90
2967;DHT22;1493;51.496;7.210;2023-05-13T15:53:46;34.00;99.90
2967;DHT22;1493;51.496;7.210;2023-05-13T15:56:13;33.60;99.90
2967;DHT22;1493;51.496;7.210;2023-05-13T15:58:40;33.60;99.90
2967;DHT22;1493;51.496;7.210;2023-05-13T16:01:07;32.70;99.90
2967;DHT22;1493;51.496;7.210;2023-05-13T16:03:33;31.20;99.90
2967;DHT22;1493;51.496;7.210;2023-05-13T16:06:02;30.60;99.90
2967;DHT22;1493;51.496;7.210;2023-05-13T16:08:29;29.20;99.90
2967;DHT22;1493;51.496;7.210;2023-05-13T16:10:55;28.60;99.90